createdAt,value
2023-03-11T00:01:58.697Z,98152.34
2023-03-11T00:04:28.247Z,98149.97
2023-03-11T00:06:58.290Z,98155.38
2023-03-11T00:09:27.954Z,98159.19
2023-03-11T00:12:01.253Z,98159.53
2023-03-11T00:14:34.090Z,98164.47
2023-03-11T00:17:02.637Z,98163.31
2023-03-11T00:19:35.868Z,98184.53
2023-03-11T00:22:08.653Z,98182.06
2023-03-11T00:24:44.322Z,98187.25
2023-03-11T00:27:14.153Z,98187.56
2023-03-11T00:29:46.586Z,98193.28
2023-03-11T00:32:19.322Z,98200.91
2023-03-11T00:34:58.170Z,98196.31
2023-03-11T00:37:30.780Z,98178.47
2023-03-11T00:39:58.028Z,98191.50
2023-03-11T00:42:28.744Z,98190.72
2023-03-11T00:44:58.658Z,98176.03
2023-03-11T00:47:31.620Z,98144.91
2023-03-11T00:50:01.609Z,98145.09
2023-03-11T00:52:28.298Z,98171.31
2023-03-11T00:55:02.136Z,98175.91
2023-03-11T00:57:31.483Z,98179.28
2023-03-11T00:59:59.909Z,98179.63
2023-03-11T01:02:30.114Z,98186.56
2023-03-11T01:05:00.245Z,98185.00
2023-03-11T01:07:26.921Z,98175.81
2023-03-11T01:09:56.716Z,98176.94
2023-03-11T01:12:29.675Z,98169.53
2023-03-11T01:14:59.340Z,98167.31
2023-03-11T01:17:29.551Z,98158.78
2023-03-11T01:19:59.061Z,98159.47
2023-03-11T01:22:26.185Z,98161.06
2023-03-11T01:24:56.066Z,98157.22
2023-03-11T01:27:22.808Z,98152.09
2023-03-11T01:29:55.780Z,98158.56
2023-03-11T01:32:22.462Z,98162.38
2023-03-11T01:34:52.301Z,98162.16
2023-03-11T01:37:19.072Z,98165.53
2023-03-11T01:39:49.674Z,98163.16
2023-03-11T01:42:22.227Z,98173.13
2023-03-11T01:44:55.261Z,98174.94
2023-03-11T01:47:32.427Z,98171.13
2023-03-11T01:49:59.344Z,98173.50
2023-03-11T01:52:26.187Z,98172.69
2023-03-11T01:54:52.893Z,98184.56
2023-03-11T01:57:25.641Z,98186.81
2023-03-11T01:59:56.813Z,98190.94
2023-03-11T02:02:32.316Z,98196.31
2023-03-11T02:05:03.750Z,98186.69
2023-03-11T02:07:34.443Z,98185.91
2023-03-11T02:10:01.325Z,98194.75
2023-03-11T02:12:40.766Z,98198.22
2023-03-11T02:15:12.528Z,98198.91
2023-03-11T02:17:44.398Z,98205.84
2023-03-11T02:20:17.420Z,98215.81
2023-03-11T02:22:47.156Z,98227.31
2023-03-11T02:25:38.664Z,98228.03
2023-03-11T02:28:18.087Z,98241.91
2023-03-11T02:30:45.828Z,98246.84
2023-03-11T02:33:14.184Z,98249.41
2023-03-11T02:35:41.731Z,98242.44
2023-03-11T02:38:11.864Z,98253.31
2023-03-11T02:40:49.064Z,98246.38
2023-03-11T02:43:24.169Z,98243.25
2023-03-11T02:45:57.268Z,98246.59
2023-03-11T02:48:24.200Z,98236.28
2023-03-11T02:50:51.873Z,98238.31
2023-03-11T02:53:22.205Z,98220.16
2023-03-11T02:55:49.147Z,98224.75
2023-03-11T02:58:19.104Z,98230.78
2023-03-11T03:00:45.880Z,98246.13
2023-03-11T03:03:12.750Z,98246.13
2023-03-11T03:05:42.908Z,98230.00
2023-03-11T03:08:14.586Z,98226.22
2023-03-11T03:10:41.342Z,98223.97
2023-03-11T03:13:17.821Z,98221.62
2023-03-11T03:15:47.979Z,98211.22
2023-03-11T03:18:21.286Z,98210.31
2023-03-11T03:20:48.503Z,98215.38
2023-03-11T03:23:19.027Z,98223.75
2023-03-11T03:25:46.707Z,98211.56
2023-03-11T03:28:19.196Z,98210.31
2023-03-11T03:30:46.529Z,98213.66
2023-03-11T03:33:19.587Z,98216.81
2023-03-11T03:35:49.037Z,98217.47
2023-03-11T03:38:24.333Z,98220.62
2023-03-11T03:40:57.584Z,98223.97
2023-03-11T03:43:30.481Z,98222.41
2023-03-11T03:46:03.217Z,98221.16
2023-03-11T03:48:36.752Z,98221.94
2023-03-11T03:51:07.134Z,98227.31
2023-03-11T03:53:38.014Z,98234.25
2023-03-11T03:56:14.816Z,98233.47
2023-03-11T03:58:51.245Z,98246.13
2023-03-11T04:01:21.497Z,98246.47
2023-03-11T04:03:48.528Z,98250.38
2023-03-11T04:06:27.521Z,98277.56
2023-03-11T04:08:55.086Z,98286.75
2023-03-11T04:11:22.505Z,98297.03
2023-03-11T04:13:52.942Z,98304.00
2023-03-11T04:16:26.756Z,98304.78
2023-03-11T04:18:59.986Z,98297.81
2023-03-11T04:21:33.492Z,98290.88
2023-03-11T04:24:03.860Z,98294.69
2023-03-11T04:26:34.083Z,98294.69
2023-03-11T04:29:05.990Z,98291.53
2023-03-11T04:31:36.114Z,98295.81
2023-03-11T04:34:09.108Z,98307.66
2023-03-11T04:36:38.380Z,98326.81
2023-03-11T04:39:11.332Z,98328.06
2023-03-11T04:41:41.256Z,98326.81
2023-03-11T04:44:14.781Z,98334.41
2023-03-11T04:46:47.591Z,98344.34
2023-03-11T04:49:17.472Z,98356.22
2023-03-11T04:51:50.264Z,98363.50
2023-03-11T04:54:17.358Z,98364.28
2023-03-11T04:56:44.106Z,98362.72
2023-03-11T04:59:15.653Z,98367.31
2023-03-11T05:01:42.450Z,98360.69
2023-03-11T05:04:12.607Z,98350.84
2023-03-11T05:06:39.439Z,98351.97
2023-03-11T05:09:14.570Z,98354.19
2023-03-11T05:11:53.280Z,98347.25
2023-03-11T05:14:23.113Z,98360.69
2023-03-11T05:16:52.829Z,98364.94
2023-03-11T05:19:25.792Z,98358.00
2023-03-11T05:21:55.498Z,98361.81
2023-03-11T05:24:24.881Z,98362.25
2023-03-11T05:26:55.246Z,98359.12
2023-03-11T05:29:22.175Z,98348.69
2023-03-11T05:31:54.813Z,98343.00
2023-03-11T05:34:24.443Z,98336.03
2023-03-11T05:37:02.681Z,98331.47
2023-03-11T05:39:35.581Z,98348.03
2023-03-11T05:42:08.490Z,98342.31
2023-03-11T05:44:41.641Z,98333.78
2023-03-11T05:47:08.200Z,98338.94
2023-03-11T05:49:41.636Z,98356.41
2023-03-11T05:52:08.406Z,98374.06
2023-03-11T05:54:35.408Z,98383.72
2023-03-11T05:57:05.304Z,98399.63
2023-03-11T05:59:32.073Z,98401.97
2023-03-11T06:02:05.303Z,98408.25
2023-03-11T06:04:34.781Z,98413.75
2023-03-11T06:07:06.960Z,98414.25
2023-03-11T06:09:40.150Z,98424.78
2023-03-11T06:12:07.026Z,98438.00
2023-03-11T06:14:36.665Z,98454.37
2023-03-11T06:17:06.347Z,98463.38
2023-03-11T06:19:37.491Z,98473.97
2023-03-11T06:22:04.159Z,98489.41
2023-03-11T06:24:37.275Z,98486.06
2023-03-11T06:27:07.151Z,98488.88
2023-03-11T06:29:33.841Z,98516.53
2023-03-11T06:32:03.668Z,98511.28
2023-03-11T06:34:34.883Z,98529.75
2023-03-11T06:37:04.493Z,98543.66
2023-03-11T06:39:34.511Z,98559.78
2023-03-11T06:42:04.079Z,98562.00
2023-03-11T06:44:31.120Z,98574.34
2023-03-11T06:46:57.925Z,98566.28
2023-03-11T06:49:25.134Z,98586.31
2023-03-11T06:51:58.044Z,98595.16
2023-03-11T06:54:30.569Z,98592.03
2023-03-11T06:57:03.357Z,98620.31
2023-03-11T06:59:33.303Z,98616.84
2023-03-11T07:02:00.224Z,98631.84
2023-03-11T07:04:29.690Z,98637.22
2023-03-11T07:07:02.561Z,98631.22
2023-03-11T07:09:29.376Z,98643.53
2023-03-11T07:11:58.750Z,98640.84
2023-03-11T07:14:29.542Z,98640.84
2023-03-11T07:16:59.583Z,98650.50
2023-03-11T07:19:29.262Z,98649.84
2023-03-11T07:22:02.607Z,98661.25
2023-03-11T07:24:32.424Z,98655.22
2023-03-11T07:27:02.432Z,98656.78
2023-03-11T07:29:34.944Z,98662.63
2023-03-11T07:32:08.570Z,98666.91
2023-03-11T07:34:44.533Z,98677.66
2023-03-11T07:37:23.402Z,98677.66
2023-03-11T07:39:53.729Z,98686.81
2023-03-11T07:42:26.516Z,98685.88
2023-03-11T07:44:57.104Z,98705.16
2023-03-11T07:47:23.892Z,98701.69
2023-03-11T07:49:56.301Z,98712.09
2023-03-11T07:52:33.182Z,98712.44
2023-03-11T07:55:00.568Z,98702.78
2023-03-11T07:57:33.373Z,98711.66
2023-03-11T08:00:01.422Z,98723.50
2023-03-11T08:02:34.233Z,98719.72
2023-03-11T08:05:05.287Z,98723.50
2023-03-11T08:07:33.548Z,98723.81
2023-03-11T08:10:00.827Z,98729.50
2023-03-11T08:12:28.630Z,98719.41
2023-03-11T08:15:01.294Z,98732.84
2023-03-11T08:17:31.287Z,98725.09
2023-03-11T08:20:04.728Z,98737.44
2023-03-11T08:22:41.230Z,98735.84
2023-03-11T08:25:19.588Z,98734.44
2023-03-11T08:27:49.482Z,98742.47
2023-03-11T08:30:19.086Z,98735.53
2023-03-11T08:32:51.304Z,98740.12
2023-03-11T08:35:20.653Z,98742.47
2023-03-11T08:37:53.639Z,98753.22
2023-03-11T08:40:26.605Z,98745.16
2023-03-11T08:42:57.981Z,98749.44
2023-03-11T08:45:30.579Z,98744.53
2023-03-11T08:48:05.177Z,98749.44
2023-03-11T08:50:52.824Z,98738.69
2023-03-11T08:53:28.588Z,98738.69
2023-03-11T08:56:02.412Z,98722.56
2023-03-11T08:58:29.774Z,98731.09
2023-03-11T09:01:01.035Z,98732.66
2023-03-11T09:03:34.383Z,98731.88
2023-03-11T09:06:15.801Z,98730.47
2023-03-11T09:08:48.223Z,98736.63
2023-03-11T09:11:26.580Z,98736.91
2023-03-11T09:13:58.420Z,98740.53
2023-03-11T09:16:32.338Z,98736.75
2023-03-11T09:19:09.065Z,98752.41
2023-03-11T09:21:42.385Z,98748.59
2023-03-11T09:24:19.453Z,98738.34
2023-03-11T09:26:54.215Z,98757.59
2023-03-11T09:29:30.610Z,98753.00
2023-03-11T09:32:08.146Z,98763.12
2023-03-11T09:34:41.844Z,98778.47
2023-03-11T09:37:12.703Z,98767.41
2023-03-11T09:39:42.816Z,98770.09
2023-03-11T09:42:55.849Z,98777.81
2023-03-11T09:45:35.668Z,98783.19
2023-03-11T09:48:43.050Z,98783.66
2023-03-11T09:51:29.078Z,98786.34
2023-03-11T09:54:15.924Z,98799.13
2023-03-11T09:56:47.879Z,98797.09
2023-03-11T09:59:28.031Z,98817.81
2023-03-11T10:02:00.995Z,98814.03
2023-03-11T10:04:48.035Z,98813.22
2023-03-11T10:07:26.712Z,98819.06
2023-03-11T10:10:02.079Z,98816.84
2023-03-11T10:12:58.573Z,98811.00
2023-03-11T10:15:56.033Z,98817.94
2023-03-11T10:18:35.201Z,98813.69
2023-03-11T10:21:25.674Z,98820.19
2023-03-11T10:24:14.468Z,98830.28
2023-03-11T10:27:03.058Z,98828.06
2023-03-11T10:30:00.306Z,98822.69
2023-03-11T10:32:37.048Z,98819.03
2023-03-11T10:35:22.957Z,98812.22
2023-03-11T10:38:14.307Z,98827.72
2023-03-11T10:40:45.195Z,98826.59
2023-03-11T10:43:18.105Z,98831.34
2023-03-11T10:45:46.884Z,98829.44
2023-03-11T10:48:27.298Z,98825.00
2023-03-11T10:51:17.849Z,98846.97
2023-03-11T10:54:02.314Z,98842.69
2023-03-11T10:56:39.666Z,98848.41
2023-03-11T10:59:22.972Z,98853.47
2023-03-11T11:02:01.133Z,98866.13
2023-03-11T11:04:43.077Z,98873.53
2023-03-11T11:07:37.786Z,98870.84
2023-03-11T11:10:21.659Z,98888.91
2023-03-11T11:13:05.034Z,98884.31
2023-03-11T11:15:37.914Z,98901.53
2023-03-11T11:18:17.691Z,98895.84
2023-03-11T11:21:15.850Z,98904.34
2023-03-11T11:23:54.023Z,98896.63
2023-03-11T11:26:33.143Z,98888.91
2023-03-11T11:29:15.204Z,98897.41
2023-03-11T11:31:50.825Z,98906.59
2023-03-11T11:34:35.994Z,98909.75
2023-03-11T11:37:15.922Z,98912.13
2023-03-11T11:39:50.779Z,98903.56
2023-03-11T11:42:26.815Z,98911.66
2023-03-11T11:45:00.855Z,98914.34
2023-03-11T11:47:37.117Z,98914.34
2023-03-11T11:50:13.830Z,98919.72
2023-03-11T11:52:53.984Z,98925.09
2023-03-11T11:55:25.453Z,98913.53
2023-03-11T11:57:55.858Z,98924.78
2023-03-11T12:00:43.242Z,98927.00
2023-03-11T12:03:31.947Z,98928.91
2023-03-11T12:06:00.698Z,98935.84
2023-03-11T12:08:46.822Z,98935.22
2023-03-11T12:11:47.775Z,98935.69
2023-03-11T12:14:32.287Z,98932.53
2023-03-11T12:17:04.080Z,98934.87
2023-03-11T12:19:55.214Z,98952.62
2023-03-11T12:22:43.665Z,98939.94
2023-03-11T12:25:22.944Z,98939.66
2023-03-11T12:28:16.917Z,98939.94
2023-03-11T12:30:55.593Z,98944.53
2023-03-11T12:33:50.093Z,98947.53
2023-03-11T12:36:41.682Z,98958.28
2023-03-11T12:39:36.277Z,98957.22
2023-03-11T12:42:13.774Z,98954.53
2023-03-11T12:44:43.708Z,98939.94
2023-03-11T12:47:16.565Z,98942.94
2023-03-11T12:49:52.468Z,98955.31
2023-03-11T12:53:00.437Z,98957.22
2023-03-11T12:55:40.140Z,98959.09
2023-03-11T12:58:39.121Z,98954.53
2023-03-11T13:01:42.042Z,98968.41
2023-03-11T13:04:21.529Z,98975.22
2023-03-11T13:07:36.569Z,98985.97
2023-03-11T13:10:21.034Z,98987.87
2023-03-11T13:12:50.345Z,98988.22
2023-03-11T13:15:24.084Z,98998.19
2023-03-11T13:18:12.479Z,99007.34
2023-03-11T13:20:42.249Z,99012.72
2023-03-11T13:23:15.691Z,99024.28
2023-03-11T13:25:53.492Z,99028.84
2023-03-11T13:28:48.668Z,99028.06
2023-03-11T13:32:01.796Z,99022.69
2023-03-11T13:34:47.200Z,99020.47
2023-03-11T13:37:24.798Z,99028.84
2023-03-11T13:40:23.047Z,99012.72
2023-03-11T13:43:09.935Z,99018.75
2023-03-11T13:45:41.653Z,99032.19
2023-03-11T13:48:28.972Z,99037.56
2023-03-11T13:51:24.101Z,99044.84
2023-03-11T13:54:04.439Z,99049.41
2023-03-11T13:56:51.502Z,99070.16
2023-03-11T13:59:33.768Z,99069.06
2023-03-11T14:02:21.193Z,99078.69
2023-03-11T14:04:59.981Z,99079.47
2023-03-11T14:07:35.214Z,99074.91
2023-03-11T14:10:30.314Z,99081.06
2023-03-11T14:13:35.329Z,99075.84
2023-03-11T14:16:17.448Z,99079.00
2023-03-11T14:18:52.281Z,99077.13
2023-03-11T14:21:22.257Z,99076.63
2023-03-11T14:23:57.752Z,99093.56
2023-03-11T14:26:28.964Z,99089.62
2023-03-11T14:29:04.823Z,99107.16
2023-03-11T14:31:41.238Z,99088.66
2023-03-11T14:34:19.796Z,99100.50
2023-03-11T14:37:00.550Z,99112.38
2023-03-11T14:39:39.968Z,99109.22
2023-03-11T14:42:12.828Z,99110.19
2023-03-11T14:44:50.104Z,99114.78
2023-03-11T14:47:31.756Z,99107.78
2023-03-11T14:49:59.800Z,99113.31
2023-03-11T14:52:36.943Z,99124.09
2023-03-11T14:55:14.367Z,99118.72
2023-03-11T14:58:12.394Z,99131.84
2023-03-11T15:00:47.345Z,99125.66
2023-03-11T15:03:23.602Z,99137.53
2023-03-11T15:05:59.151Z,99129.47
2023-03-11T15:08:31.916Z,99123.94
2023-03-11T15:11:15.650Z,99145.44
2023-03-11T15:13:45.907Z,99144.47
2023-03-11T15:16:33.823Z,99155.87
2023-03-11T15:19:29.687Z,99151.12
2023-03-11T15:22:07.396Z,99139.59
2023-03-11T15:24:38.943Z,99138.00
2023-03-11T15:27:33.152Z,99121.84
2023-03-11T15:30:02.700Z,99131.03
2023-03-11T15:32:38.742Z,99124.09
2023-03-11T15:35:19.345Z,99134.34
2023-03-11T15:37:50.141Z,99124.72
2023-03-11T15:40:44.390Z,99118.84
2023-03-11T15:43:26.756Z,99124.87
2023-03-11T15:45:55.057Z,99141.28
2023-03-11T15:48:22.792Z,99141.00
2023-03-11T15:50:55.656Z,99165.50
2023-03-11T15:53:33.201Z,99162.00
2023-03-11T15:56:14.531Z,99175.44
2023-03-11T15:58:45.060Z,99178.13
2023-03-11T16:01:12.730Z,99188.91
2023-03-11T16:03:44.697Z,99184.63
2023-03-11T16:06:15.437Z,99194.28
2023-03-11T16:08:46.271Z,99188.91
2023-03-11T16:11:16.813Z,99192.69
2023-03-11T16:13:49.660Z,99196.50
2023-03-11T16:16:18.040Z,99191.13
2023-03-11T16:18:53.252Z,99216.37
2023-03-11T16:21:25.605Z,99236.66
2023-03-11T16:24:00.584Z,99247.69
2023-03-11T16:26:30.452Z,99255.75
2023-03-11T16:29:16.548Z,99256.84
2023-03-11T16:31:45.870Z,99257.47
2023-03-11T16:34:18.742Z,99262.84
2023-03-11T16:36:49.031Z,99265.84
2023-03-11T16:39:21.121Z,99265.06
2023-03-11T16:41:48.916Z,99285.00
2023-03-11T16:44:24.537Z,99290.50
2023-03-11T16:46:55.267Z,99297.78
2023-03-11T16:49:31.657Z,99302.09
2023-03-11T16:51:59.545Z,99312.84
2023-03-11T16:54:29.664Z,99340.19
2023-03-11T16:57:04.575Z,99347.63
2023-03-11T16:59:35.102Z,99363.75
2023-03-11T17:02:04.353Z,99353.00
2023-03-11T17:04:35.417Z,99359.00
2023-03-11T17:07:08.277Z,99364.69
2023-03-11T17:09:38.766Z,99360.91
2023-03-11T17:12:12.150Z,99367.56
2023-03-11T17:14:43.612Z,99375.63
2023-03-11T17:17:14.695Z,99375.31
2023-03-11T17:19:43.773Z,99385.75
2023-03-11T17:22:14.855Z,99395.41
2023-03-11T17:24:45.280Z,99399.69
2023-03-11T17:27:16.100Z,99399.69
2023-03-11T17:29:43.195Z,99398.87
2023-03-11T17:32:15.764Z,99409.31
2023-03-11T17:34:47.089Z,99404.44
2023-03-11T17:37:17.034Z,99410.62
2023-03-11T17:39:47.120Z,99406.03
2023-03-11T17:42:17.333Z,99410.62
2023-03-11T17:44:51.667Z,99405.25
2023-03-11T17:47:25.260Z,99410.28
2023-03-11T17:49:53.386Z,99420.44
2023-03-11T17:52:26.060Z,99438.94
2023-03-11T17:54:57.699Z,99435.19
2023-03-11T17:57:25.492Z,99439.91
2023-03-11T18:00:00.228Z,99439.31
2023-03-11T18:02:32.537Z,99435.22
2023-03-11T18:05:06.355Z,99438.88
2023-03-11T18:07:40.999Z,99439.84
2023-03-11T18:10:18.573Z,99445.69
2023-03-11T18:12:54.398Z,99444.00
2023-03-11T18:15:22.008Z,99444.19
2023-03-11T18:17:50.061Z,99443.75
2023-03-11T18:20:23.274Z,99449.31
2023-03-11T18:22:53.994Z,99457.06
2023-03-11T18:25:24.518Z,99459.75
2023-03-11T18:27:53.925Z,99462.44
2023-03-11T18:30:27.546Z,99471.62
2023-03-11T18:32:58.725Z,99477.00
2023-03-11T18:35:32.548Z,99482.87
2023-03-11T18:38:03.548Z,99487.94
2023-03-11T18:40:36.430Z,99491.94
2023-03-11T18:43:13.773Z,99488.91
2023-03-11T18:45:46.420Z,99502.03
2023-03-11T18:48:18.035Z,99499.84
2023-03-11T18:50:56.854Z,99503.03
2023-03-11T18:53:25.740Z,99517.28
2023-03-11T18:56:07.695Z,99523.13
2023-03-11T18:58:43.504Z,99529.31
2023-03-11T19:01:27.513Z,99523.94
2023-03-11T19:04:01.625Z,99532.50
2023-03-11T19:06:36.693Z,99546.75
2023-03-11T19:09:09.286Z,99538.69
2023-03-11T19:11:44.108Z,99541.06
2023-03-11T19:14:18.425Z,99538.06
2023-03-11T19:16:52.469Z,99536.63
2023-03-11T19:19:27.375Z,99543.13
2023-03-11T19:22:00.132Z,99548.50
2023-03-11T19:24:38.882Z,99538.25
2023-03-11T19:27:08.946Z,99526.84
2023-03-11T19:29:38.154Z,99522.28
2023-03-11T19:32:11.599Z,99540.78
2023-03-11T19:34:40.719Z,99531.59
2023-03-11T19:39:43.114Z,99529.41
2023-03-11T19:42:14.737Z,99546.53
2023-03-11T19:44:46.112Z,99551.59
2023-03-11T19:47:27.263Z,99555.09
2023-03-11T19:49:55.042Z,99560.47
2023-03-11T19:52:24.446Z,99574.44
2023-03-11T19:54:52.665Z,99575.22
2023-03-11T19:57:30.960Z,99586.78
2023-03-11T19:59:58.545Z,99595.34
2023-03-11T20:02:29.691Z,99596.13
2023-03-11T20:04:58.189Z,99606.13
2023-03-11T20:07:29.646Z,99598.50
2023-03-11T20:10:02.778Z,99604.69
2023-03-11T20:12:36.685Z,99605.47
2023-03-11T20:15:11.160Z,99604.41
2023-03-11T20:17:39.198Z,99599.81
2023-03-11T20:20:11.550Z,99604.87
2023-03-11T20:22:43.705Z,99606.44
2023-03-11T20:25:16.566Z,99612.66
2023-03-11T20:27:47.539Z,99615.62
2023-03-11T20:30:19.099Z,99622.59
2023-03-11T20:32:56.032Z,99634.47
2023-03-11T20:35:24.691Z,99625.63
2023-03-11T20:37:56.359Z,99635.59
2023-03-11T20:40:27.493Z,99634.47
2023-03-11T20:42:55.806Z,99639.06
2023-03-11T20:45:26.840Z,99633.38
2023-03-11T20:47:54.352Z,99640.38
2023-03-11T20:50:23.965Z,99642.28
2023-03-11T20:52:54.874Z,99634.19
2023-03-11T20:55:26.217Z,99633.09
2023-03-11T20:58:04.502Z,99631.97
2023-03-11T21:00:39.541Z,99638.47
2023-03-11T21:03:10.309Z,99642.75
2023-03-11T21:05:41.754Z,99641.94
2023-03-11T21:08:13.146Z,99643.53
2023-03-11T21:10:41.038Z,99643.53
2023-03-11T21:13:14.387Z,99647.00
2023-03-11T21:15:42.165Z,99651.63
2023-03-11T21:18:19.088Z,99657.31
2023-03-11T21:20:50.735Z,99654.31
2023-03-11T21:23:22.129Z,99666.66
2023-03-11T21:26:00.776Z,99674.75
2023-03-11T21:28:32.945Z,99675.84
2023-03-11T21:31:30.589Z,99673.66
2023-03-11T21:34:02.654Z,99679.03
2023-03-11T21:36:34.618Z,99684.44
2023-03-11T21:39:08.867Z,99677.44
2023-03-11T21:41:37.273Z,99681.22
2023-03-11T21:44:08.162Z,99684.72
2023-03-11T21:46:49.457Z,99692.00
2023-03-11T21:49:22.510Z,99693.59
2023-03-11T21:51:51.556Z,99698.97
2023-03-11T21:54:22.710Z,99703.28
2023-03-11T21:56:51.852Z,99712.44
2023-03-11T21:59:25.409Z,99723.22
2023-03-11T22:02:01.409Z,99720.50
2023-03-11T22:04:36.926Z,99725.09
2023-03-11T22:07:09.012Z,99728.91
2023-03-11T22:09:46.345Z,99735.09
2023-03-11T22:12:15.404Z,99740.47
2023-03-11T22:14:44.023Z,99752.34
2023-03-11T22:17:13.372Z,99751.84
2023-03-11T22:19:44.636Z,99743.28
2023-03-11T22:22:12.817Z,99759.44
2023-03-11T22:24:43.076Z,99762.16
2023-03-11T22:27:11.363Z,99757.56
2023-03-11T22:29:42.158Z,99757.87
2023-03-11T22:32:16.053Z,99761.34
2023-03-11T22:34:46.356Z,99767.53
2023-03-11T22:37:20.527Z,99769.44
2023-03-11T22:39:57.336Z,99771.34
2023-03-11T22:42:28.263Z,99771.34
2023-03-11T22:45:01.894Z,99778.31
2023-03-11T22:47:35.718Z,99784.78
2023-03-11T22:50:04.453Z,99779.41
2023-03-11T22:52:32.832Z,99783.69
2023-03-11T22:55:10.449Z,99779.41
2023-03-11T22:57:42.781Z,99783.19
2023-03-11T23:00:14.628Z,99783.19
2023-03-11T23:02:42.746Z,99779.41
2023-03-11T23:05:10.576Z,99790.19
2023-03-11T23:07:39.181Z,99793.16
2023-03-11T23:10:08.611Z,99788.56
2023-03-11T23:12:37.346Z,99797.75
2023-03-11T23:15:10.856Z,99799.66
2023-03-11T23:17:44.490Z,99796.97
2023-03-11T23:20:17.390Z,99797.75
2023-03-11T23:22:48.010Z,99796.16
2023-03-11T23:25:20.761Z,99806.16
2023-03-11T23:27:49.830Z,99807.72
2023-03-11T23:30:17.488Z,99815.00
2023-03-11T23:32:45.548Z,99826.88
2023-03-11T23:35:13.531Z,99826.88
2023-03-11T23:37:47.394Z,99827.50
2023-03-11T23:40:20.879Z,99835.25
2023-03-11T23:42:54.337Z,99841.44
2023-03-11T23:45:24.262Z,99838.25
2023-03-11T23:47:51.821Z,99846.03
2023-03-11T23:50:22.440Z,99856.78
2023-03-11T23:52:57.352Z,99854.41
2023-03-11T23:55:24.654Z,99857.09
2023-03-11T23:57:51.701Z,99864.37
